Time;durP1;ratioP1;P1;durP2;ratioP2;P2;SDS_P1;SDS_P2;PMS_P1;PMS_P2;Temp;Humidity;BMP_temperature;BMP_pressure;BME280_temperature;BME280_humidity;BME280_pressure;Samples;Min_cycle;Max_cycle;Signal;HPM_P1;HPM_P2
2022/04/10 00:00:17;;;;;;;3.33;2.60;;;7.40;86.90;;;;;;4956855;28;20031;-82
2022/04/10 00:02:44;;;;;;;2.75;2.00;;;7.40;86.10;;;;;;4957182;28;20342;-82
2022/04/10 00:05:10;;;;;;;5.78;2.38;;;7.30;85.80;;;;;;4943995;29;20071;-83
2022/04/10 00:07:35;;;;;;;3.42;1.55;;;7.30;86.60;;;;;;4939758;28;20043;-78
2022/04/10 00:10:01;;;;;;;4.32;2.00;;;7.30;86.60;;;;;;4955647;28;20511;-76
2022/04/10 00:12:27;;;;;;;4.05;2.28;;;7.30;86.40;;;;;;4938726;28;20066;-77
2022/04/10 00:14:53;;;;;;;3.60;2.10;;;7.30;86.00;;;;;;4955504;28;20051;-79
2022/04/10 00:17:18;;;;;;;3.80;2.22;;;7.20;86.30;;;;;;4956365;28;20035;-79
2022/04/10 00:19:45;;;;;;;4.55;1.98;;;7.30;86.50;;;;;;4939247;29;20124;-80
2022/04/10 00:22:12;;;;;;;2.95;1.73;;;7.10;86.50;;;;;;4939626;29;20050;-79
2022/04/10 00:24:38;;;;;;;2.58;2.20;;;7.20;85.90;;;;;;4939729;29;20059;-80
2022/04/10 00:27:05;;;;;;;2.78;2.20;;;7.20;86.50;;;;;;4957829;28;20492;-80
2022/04/10 00:29:31;;;;;;;2.63;1.98;;;7.10;86.60;;;;;;4956619;28;20042;-80
2022/04/10 00:31:57;;;;;;;2.00;1.58;;;7.20;86.10;;;;;;4938691;28;20039;-76
2022/04/10 00:34:23;;;;;;;2.08;1.77;;;7.20;86.30;;;;;;4939704;29;20476;-77
2022/04/10 00:36:48;;;;;;;2.17;1.77;;;7.20;86.40;;;;;;4956434;28;20098;-77
2022/04/10 00:39:14;;;;;;;4.07;1.98;;;7.10;85.90;;;;;;4955720;28;20138;-77
2022/04/10 00:41:40;;;;;;;2.50;1.75;;;7.20;85.60;;;;;;4955403;28;20473;-77
2022/04/10 00:44:10;;;;;;;2.92;1.98;;;7.10;86.00;;;;;;4956319;28;20039;-77
2022/04/10 00:46:37;;;;;;;4.22;1.92;;;7.10;85.80;;;;;;4956092;28;20649;-77
2022/04/10 00:49:03;;;;;;;3.35;1.60;;;7.10;85.70;;;;;;4956056;28;20027;-77
2022/04/10 00:51:41;;;;;;;1.98;1.70;;;7.00;85.70;;;;;;4955895;29;20038;-79
2022/04/10 00:54:17;;;;;;;2.85;1.88;;;7.10;85.70;;;;;;4955877;29;20047;-79
2022/04/10 00:56:43;;;;;;;3.20;1.55;;;7.10;85.00;;;;;;4955878;28;20155;-77
2022/04/10 00:59:09;;;;;;;2.95;1.80;;;7.10;85.80;;;;;;4938392;29;20035;-78
2022/04/10 06:49:47;;;;;;;6.30;3.75;;;8.00;83.70;;;;;;5004933;23;20062;-89
2022/04/10 06:52:35;;;;;;;5.47;3.95;;;8.00;83.40;;;;;;4962634;29;20043;-89
2022/04/10 06:55:42;;;;;;;4.32;3.45;;;8.10;83.50;;;;;;4957529;29;20020;-89
2022/04/10 06:58:34;;;;;;;6.18;3.50;;;8.30;83.40;;;;;;4955217;29;20035;-89
2022/04/10 07:01:14;;;;;;;57.40;6.70;;;8.40;82.30;;;;;;4921121;29;20046;-90
2022/04/10 07:04:13;;;;;;;14.85;3.85;;;8.50;82.30;;;;;;4956596;29;20027;-89
2022/04/10 07:07:04;;;;;;;3.97;2.92;;;8.60;80.70;;;;;;4938325;29;20036;-89
2022/04/10 07:09:35;;;;;;;9.77;3.60;;;8.80;79.10;;;;;;4952115;29;20043;-91
2022/04/10 07:12:29;;;;;;;4.82;3.20;;;8.90;79.20;;;;;;4950319;29;20059;-88
2022/04/10 07:14:57;;;;;;;4.38;2.70;;;9.00;79.50;;;;;;4947331;29;20035;-90
2022/04/10 07:17:23;;;;;;;4.85;3.28;;;9.20;80.00;;;;;;4945616;29;20050;-90
2022/04/10 07:19:48;;;;;;;6.40;3.88;;;9.30;79.60;;;;;;4944506;29;20028;-89
2022/04/10 07:24:59;;;;;;;10.50;3.22;;;9.40;79.30;;;;;;4944853;29;20070;-88
2022/04/10 07:27:26;;;;;;;6.15;3.10;;;9.50;78.30;;;;;;4943740;29;20047;-90
2022/04/10 07:29:52;;;;;;;3.30;2.75;;;9.60;77.20;;;;;;4941356;29;20095;-91
2022/04/10 07:32:31;;;;;;;4.05;2.83;;;9.60;76.30;;;;;;4953955;29;20136;-92
2022/04/10 07:35:42;;;;;;;4.13;3.00;;;9.60;75.90;;;;;;4936957;29;20029;-91
2022/04/10 07:38:14;;;;;;;3.72;2.75;;;9.70;77.20;;;;;;4931580;29;20050;-90
2022/04/10 07:40:43;;;;;;;3.92;3.05;;;9.90;77.50;;;;;;4933791;29;20036;-91
2022/04/10 07:43:08;;;;;;;6.20;2.97;;;9.90;75.40;;;;;;4939547;29;20056;-89
2022/04/10 07:48:21;;;;;;;7.10;3.50;;;10.20;75.20;;;;;;4953294;29;20030;-90
2022/04/10 07:50:49;;;;;;;4.72;2.80;;;10.30;74.40;;;;;;4959228;29;20032;-90
2022/04/10 07:53:15;;;;;;;3.72;2.80;;;10.30;72.70;;;;;;4957355;29;20020;-91
2022/04/10 07:55:41;;;;;;;5.15;2.75;;;10.50;73.50;;;;;;4955772;29;20066;-90
2022/04/10 07:58:09;;;;;;;3.60;1.88;;;10.60;74.30;;;;;;4945415;29;20060;-90
2022/04/10 08:00:37;;;;;;;3.22;2.20;;;10.70;72.10;;;;;;4952147;29;20023;-90
2022/04/10 08:03:06;;;;;;;3.67;2.20;;;10.90;69.30;;;;;;4969458;28;20072;-93
2022/04/10 08:05:42;;;;;;;3.33;2.20;;;11.00;69.00;;;;;;4942689;29;20035;-91
2022/04/10 08:08:10;;;;;;;2.83;2.28;;;11.10;66.80;;;;;;4961934;29;20020;-94
2022/04/10 08:10:40;;;;;;;2.60;1.98;;;11.20;67.20;;;;;;4962023;29;20022;-93
2022/04/10 08:13:10;;;;;;;2.65;2.15;;;11.30;67.00;;;;;;4944699;29;20059;-92
2022/04/10 08:22:33;;;;;;;3.92;2.20;;;11.70;62.40;;;;;;4942304;29;20080;-90
2022/04/10 08:25:16;;;;;;;3.80;2.08;;;11.90;62.10;;;;;;4916352;29;20036;-92
2022/04/10 08:27:50;;;;;;;4.07;2.42;;;12.00;61.80;;;;;;4955205;23;20106;-77
2022/04/10 08:30:16;;;;;;;2.80;1.92;;;12.20;62.90;;;;;;4956777;28;20039;-77
2022/04/10 08:32:43;;;;;;;2.55;1.50;;;12.30;61.50;;;;;;4956371;28;20430;-77
2022/04/10 08:35:09;;;;;;;1.88;1.20;;;12.40;59.50;;;;;;4954809;28;20039;-78
2022/04/10 08:37:35;;;;;;;1.08;0.95;;;12.60;59.70;;;;;;4955098;28;20156;-78
2022/04/10 08:40:02;;;;;;;1.73;1.17;;;12.70;55.90;;;;;;4949031;28;20063;-77
2022/04/10 08:42:28;;;;;;;1.40;0.98;;;12.90;56.30;;;;;;4955749;29;20043;-77
2022/04/10 08:44:56;;;;;;;2.15;1.02;;;13.00;51.70;;;;;;4955144;28;20035;-77
2022/04/10 08:47:21;;;;;;;3.10;1.10;;;13.10;51.70;;;;;;4956171;29;20035;-77
2022/04/10 08:49:48;;;;;;;1.77;1.10;;;13.20;52.40;;;;;;4955551;28;20391;-77
2022/04/10 08:52:16;;;;;;;1.75;1.40;;;13.40;53.10;;;;;;4955830;28;20082;-77
2022/04/10 08:54:44;;;;;;;1.52;1.13;;;13.50;52.20;;;;;;4956311;28;20119;-77
2022/04/10 08:57:10;;;;;;;3.13;1.40;;;13.70;54.00;;;;;;4955509;28;20132;-77
2022/04/10 08:59:36;;;;;;;2.20;1.30;;;13.80;52.00;;;;;;4956001;28;20035;-78
2022/04/10 09:02:03;;;;;;;3.10;1.20;;;13.90;47.60;;;;;;4954926;28;20046;-77
2022/04/10 09:04:29;;;;;;;1.15;0.90;;;14.00;48.40;;;;;;4955696;28;20108;-77
2022/04/10 09:07:07;;;;;;;2.10;1.02;;;14.20;47.90;;;;;;4955482;28;20036;-78
2022/04/10 09:09:34;;;;;;;1.67;0.85;;;14.30;45.20;;;;;;4950776;29;20123;-77
2022/04/10 09:12:00;;;;;;;1.90;0.90;;;14.40;45.80;;;;;;4956239;29;20158;-78
2022/04/10 09:14:38;;;;;;;1.42;0.93;;;14.60;45.70;;;;;;4956320;28;20552;-77
2022/04/10 09:17:18;;;;;;;0.70;0.63;;;14.70;47.20;;;;;;4937807;29;20481;-79
2022/04/10 09:19:49;;;;;;;1.45;0.95;;;14.90;48.80;;;;;;4956283;29;20050;-78
2022/04/10 09:22:23;;;;;;;2.05;0.85;;;15.00;44.30;;;;;;4955870;28;20091;-78
2022/04/10 09:25:11;;;;;;;2.75;0.80;;;15.20;44.50;;;;;;4956601;29;20040;-78
2022/04/10 09:27:41;;;;;;;2.55;0.77;;;15.30;41.40;;;;;;4956312;28;20063;-78
2022/04/10 09:30:18;;;;;;;1.23;0.70;;;15.50;39.90;;;;;;4938891;29;20480;-78
2022/04/10 09:32:49;;;;;;;1.67;1.00;;;15.60;38.00;;;;;;4954231;29;20101;-79
2022/04/10 09:35:17;;;;;;;1.13;0.80;;;15.70;38.80;;;;;;4949991;28;20065;-79
2022/04/10 09:37:54;;;;;;;2.67;0.88;;;15.90;38.80;;;;;;4936402;29;20472;-79
2022/04/10 09:40:33;;;;;;;3.45;1.00;;;16.10;37.20;;;;;;4950045;29;20039;-79
2022/04/10 09:43:04;;;;;;;2.45;1.10;;;16.20;38.00;;;;;;4952762;28;20039;-77
2022/04/10 09:45:30;;;;;;;2.25;1.38;;;16.30;37.00;;;;;;4936714;28;20122;-75
2022/04/10 09:47:56;;;;;;;1.50;1.05;;;16.50;41.50;;;;;;4954769;29;20127;-76
2022/04/10 09:50:33;;;;;;;3.03;1.35;;;16.60;36.30;;;;;;4955402;29;20039;-78
2022/04/10 09:53:06;;;;;;;2.53;1.70;;;16.80;40.90;;;;;;4935960;28;20858;-76
2022/04/10 09:55:37;;;;;;;5.25;2.20;;;16.90;43.90;;;;;;4950898;28;20049;-77
2022/04/10 09:58:10;;;;;;;2.92;1.65;;;17.00;46.30;;;;;;4952549;28;20504;-76
2022/04/10 10:00:38;;;;;;;4.53;1.17;;;17.10;45.50;;;;;;4952337;28;20117;-77
2022/04/10 10:03:07;;;;;;;1.90;1.10;;;17.30;38.70;;;;;;4952744;28;20043;-77
2022/04/10 10:05:36;;;;;;;1.23;0.93;;;17.40;41.50;;;;;;4954516;28;20039;-79
2022/04/10 10:08:03;;;;;;;1.90;1.25;;;17.50;38.60;;;;;;4954047;28;20031;-81
2022/04/10 10:10:30;;;;;;;2.50;1.45;;;17.60;41.50;;;;;;4954032;29;20031;-80
2022/04/10 10:12:59;;;;;;;2.53;1.88;;;17.80;45.30;;;;;;4942071;28;20074;-80
2022/04/10 10:15:25;;;;;;;2.70;1.67;;;17.90;45.50;;;;;;4948998;28;20429;-79
2022/04/10 10:17:51;;;;;;;3.42;1.83;;;18.00;46.10;;;;;;4933569;29;20531;-79
2022/04/10 10:20:19;;;;;;;4.95;2.15;;;18.20;46.40;;;;;;4950643;28;20047;-79
2022/04/10 10:22:45;;;;;;;3.15;1.75;;;18.30;47.00;;;;;;4951466;28;20070;-80
2022/04/10 10:25:16;;;;;;;2.95;1.92;;;18.50;44.20;;;;;;4930865;28;20487;-79
2022/04/10 10:28:10;;;;;;;12.88;2.30;;;18.60;45.60;;;;;;4952986;28;20132;-78
2022/04/10 10:30:53;;;;;;;3.25;2.10;;;18.70;43.40;;;;;;4939631;28;20035;-81
2022/04/10 10:33:23;;;;;;;5.68;2.40;;;18.80;44.90;;;;;;4946010;29;20043;-80
2022/04/10 10:36:20;;;;;;;3.17;1.60;;;18.70;43.40;;;;;;4946881;28;20043;-79
2022/04/10 10:38:54;;;;;;;8.27;2.53;;;18.90;45.60;;;;;;4947968;28;20040;-79
2022/04/10 10:41:20;;;;;;;5.05;2.55;;;19.00;41.40;;;;;;4943209;28;20046;-79
2022/04/10 10:43:47;;;;;;;3.35;2.20;;;18.90;39.10;;;;;;4922668;29;20039;-79
2022/04/10 10:46:28;;;;;;;5.07;2.13;;;19.00;39.40;;;;;;4952734;28;20039;-79
2022/04/10 10:49:17;;;;;;;3.53;2.30;;;19.00;39.00;;;;;;4954955;28;20094;-79
2022/04/10 10:51:45;;;;;;;7.00;3.55;;;19.00;37.80;;;;;;4945436;28;20027;-79
2022/04/10 10:54:34;;;;;;;4.03;2.47;;;18.80;38.10;;;;;;4953092;29;20118;-79
2022/04/10 10:57:29;;;;;;;4.40;2.15;;;18.80;41.60;;;;;;4932346;29;20039;-77
2022/04/10 11:00:10;;;;;;;3.38;1.77;;;19.10;40.20;;;;;;4952384;28;20035;-77
2022/04/10 11:02:38;;;;;;;3.95;2.25;;;19.30;39.50;;;;;;4938669;29;20488;-77
2022/04/10 11:05:25;;;;;;;2.92;2.00;;;19.20;36.70;;;;;;4950541;28;20043;-75
2022/04/10 11:08:05;;;;;;;5.90;2.30;;;19.30;35.70;;;;;;4948235;28;20046;-76
2022/04/10 11:10:51;;;;;;;;;;;19.60;32.80;;;;;;4953504;28;20035;-77
2022/04/10 11:13:18;;;;;;;4.28;1.80;;;19.70;35.40;;;;;;4949348;28;19911;-76
2022/04/10 11:15:49;;;;;;;2.38;1.50;;;19.90;33.10;;;;;;4951796;28;20399;-77
2022/04/10 11:18:27;;;;;;;2.88;1.40;;;20.10;33.90;;;;;;4942519;28;20170;-77
2022/04/10 11:20:57;;;;;;;5.43;1.70;;;20.40;34.30;;;;;;4953176;28;20042;-77
2022/04/10 11:23:29;;;;;;;;;;;20.10;34.60;;;;;;4952983;28;20514;-78
2022/04/10 11:26:02;;;;;;;2.33;1.58;;;20.00;34.60;;;;;;4938037;28;19961;-77
2022/04/10 11:28:30;;;;;;;8.68;1.90;;;20.10;34.50;;;;;;4951797;28;20431;-77
2022/04/10 11:30:56;;;;;;;3.95;1.98;;;20.20;32.90;;;;;;4950718;28;21330;-77
2022/04/10 11:33:23;;;;;;;2.00;1.70;;;20.30;33.10;;;;;;4952521;28;20063;-77
2022/04/10 11:35:56;;;;;;;2.63;1.70;;;20.50;33.10;;;;;;4955342;28;20126;-78
2022/04/10 11:38:43;;;;;;;2.20;1.90;;;20.90;34.30;;;;;;4949385;28;20088;-78
2022/04/10 11:41:10;;;;;;;2.55;1.77;;;21.50;32.40;;;;;;4946310;28;20074;-79
2022/04/10 11:43:39;;;;;;;2.22;1.60;;;22.00;31.20;;;;;;4958702;28;20035;-80
2022/04/10 11:46:07;;;;;;;3.15;2.03;;;22.30;29.60;;;;;;4961672;28;20043;-84
2022/04/10 11:48:33;;;;;;;24.30;3.22;;;22.60;28.80;;;;;;4956436;28;20495;-77
2022/04/10 11:51:07;;;;;;;3.50;1.77;;;22.90;28.90;;;;;;4947861;28;20066;-76
2022/04/10 11:53:33;;;;;;;4.10;2.70;;;23.40;30.60;;;;;;4958681;28;20066;-79
2022/04/10 11:55:59;;;;;;;4.35;3.53;;;23.70;27.70;;;;;;4956586;28;20484;-78
2022/04/10 11:58:26;;;;;;;4.43;2.20;;;23.50;27.30;;;;;;4937991;28;20031;-77
2022/04/10 12:00:53;;;;;;;4.35;2.30;;;23.60;28.30;;;;;;4960650;28;20114;-79
2022/04/10 12:03:24;;;;;;;3.03;1.83;;;23.80;29.80;;;;;;4959584;28;20043;-79
2022/04/10 12:05:50;;;;;;;5.13;1.92;;;24.20;30.00;;;;;;4956195;28;20043;-80
2022/04/10 12:08:16;;;;;;;5.00;2.45;;;24.30;28.20;;;;;;4955705;28;20031;-77
2022/04/10 12:11:00;;;;;;;11.73;4.50;;;24.40;28.50;;;;;;4950319;28;20320;-80
2022/04/10 12:13:30;;;;;;;4.32;2.05;;;24.40;28.40;;;;;;4955154;28;20051;-80
2022/04/10 12:16:00;;;;;;;8.23;5.38;;;24.00;27.30;;;;;;4955052;28;20035;-81
2022/04/10 12:18:26;;;;;;;6.85;3.03;;;23.90;28.80;;;;;;4952672;28;20035;-79
2022/04/10 12:21:04;;;;;;;2.53;1.70;;;24.10;30.10;;;;;;4962696;28;20054;-77
2022/04/10 12:23:30;;;;;;;3.15;1.85;;;24.30;28.70;;;;;;4955836;28;20046;-78
2022/04/10 12:25:58;;;;;;;2.67;1.52;;;24.30;27.30;;;;;;4956312;28;20102;-78
2022/04/10 12:28:24;;;;;;;4.15;2.20;;;24.40;27.90;;;;;;4954779;28;20048;-78
2022/04/10 12:30:51;;;;;;;3.53;1.60;;;24.60;28.00;;;;;;4947942;28;20044;-79
2022/04/10 12:33:18;;;;;;;3.13;1.38;;;24.40;28.30;;;;;;4955709;28;20039;-79
2022/04/10 12:35:44;;;;;;;5.65;1.52;;;24.20;24.20;;;;;;4946289;28;20039;-79
2022/04/10 12:38:18;;;;;;;2.13;1.38;;;24.10;24.60;;;;;;4934895;29;20085;-80
2022/04/10 12:40:44;;;;;;;8.88;1.88;;;24.10;24.50;;;;;;4955533;28;20123;-78
2022/04/10 12:43:12;;;;;;;6.18;1.50;;;24.30;27.60;;;;;;4945458;28;20548;-76
2022/04/10 12:45:39;;;;;;;4.40;1.58;;;24.00;28.10;;;;;;4953752;28;20373;-77
2022/04/10 12:48:24;;;;;;;2.38;1.52;;;24.10;27.30;;;;;;4954331;28;20054;-77
2022/04/10 12:51:12;;;;;;;2.95;1.70;;;24.10;27.30;;;;;;4955657;28;20082;-78
2022/04/10 12:53:38;;;;;;;12.60;2.05;;;24.10;27.80;;;;;;4953914;28;20102;-78
2022/04/10 12:56:17;;;;;;;3.00;1.65;;;24.00;27.00;;;;;;4953046;28;20047;-78
2022/04/10 12:58:50;;;;;;;2.17;1.50;;;23.90;27.40;;;;;;4955793;28;20519;-79
2022/04/10 13:01:32;;;;;;;4.15;1.70;;;24.10;26.50;;;;;;4954973;28;20054;-79
2022/04/10 13:03:59;;;;;;;2.10;1.65;;;24.10;26.80;;;;;;4955394;28;20036;-79
2022/04/10 13:06:45;;;;;;;3.20;1.90;;;23.80;27.70;;;;;;4935793;28;20443;-79
2022/04/10 13:09:12;;;;;;;2.10;1.70;;;23.50;27.20;;;;;;4955399;28;20149;-79
2022/04/10 13:11:38;;;;;;;1.95;1.75;;;23.20;27.90;;;;;;4949305;28;20062;-79
2022/04/10 13:14:06;;;;;;;3.15;1.92;;;23.00;29.60;;;;;;4955438;28;20028;-79
2022/04/10 13:16:40;;;;;;;4.05;2.10;;;22.50;28.30;;;;;;4954885;28;20135;-78
2022/04/10 13:19:16;;;;;;;4.05;1.45;;;22.20;28.80;;;;;;4946843;28;20085;-79
2022/04/10 13:21:45;;;;;;;2.33;1.50;;;22.00;28.40;;;;;;4962391;28;20074;-78
2022/04/10 13:24:11;;;;;;;2.28;1.48;;;21.80;28.20;;;;;;4938438;28;20126;-78
2022/04/10 13:26:39;;;;;;;3.70;1.30;;;21.40;27.30;;;;;;4951138;28;20432;-78
2022/04/10 13:29:07;;;;;;;1.98;1.40;;;21.30;28.00;;;;;;4949424;28;20053;-78
2022/04/10 13:31:33;;;;;;;1.65;1.17;;;21.10;27.00;;;;;;4960414;28;20067;-78
2022/04/10 13:33:59;;;;;;;2.45;1.08;;;20.70;26.80;;;;;;4950508;28;20118;-78
2022/04/10 13:36:25;;;;;;;2.22;1.70;;;20.50;27.20;;;;;;4953719;28;20127;-77
2022/04/10 13:38:51;;;;;;;4.47;1.75;;;20.20;30.20;;;;;;4953080;28;20038;-78
2022/04/10 13:41:18;;;;;;;1.88;1.40;;;20.10;31.40;;;;;;4964934;28;20039;-78
2022/04/10 13:43:44;;;;;;;6.13;1.90;;;19.90;30.70;;;;;;4933068;28;20524;-78
2022/04/10 13:46:10;;;;;;;5.03;1.83;;;19.80;31.20;;;;;;4942493;28;20035;-78
2022/04/10 13:48:35;;;;;;;2.78;1.83;;;19.80;32.80;;;;;;4953980;28;20031;-77
2022/04/10 13:51:02;;;;;;;5.32;2.08;;;19.70;30.90;;;;;;4937551;29;20035;-74
2022/04/10 13:53:28;;;;;;;5.78;2.10;;;19.50;32.30;;;;;;4945388;28;20032;-77
2022/04/10 13:55:54;;;;;;;3.42;1.55;;;19.30;32.00;;;;;;4948254;28;20046;-81
2022/04/10 13:58:20;;;;;;;2.67;1.70;;;19.20;32.20;;;;;;4935180;29;20480;-76
2022/04/10 14:00:45;;;;;;;2.53;1.88;;;19.20;33.60;;;;;;4954895;28;20134;-76
2022/04/10 14:03:11;;;;;;;2.42;1.55;;;19.10;34.00;;;;;;4937537;28;20036;-81
2022/04/10 14:05:37;;;;;;;2.60;1.85;;;19.00;33.10;;;;;;4937162;29;20035;-82
2022/04/10 14:08:02;;;;;;;5.20;1.88;;;18.90;31.80;;;;;;4955268;28;20044;-82
2022/04/10 14:10:28;;;;;;;3.17;1.60;;;18.80;31.80;;;;;;4937899;28;20484;-81
2022/04/10 14:12:54;;;;;;;4.38;1.80;;;18.70;32.30;;;;;;4955416;28;20127;-82
2022/04/10 14:15:20;;;;;;;8.30;1.70;;;18.60;34.10;;;;;;4955211;28;20063;-82
2022/04/10 14:17:45;;;;;;;2.92;1.50;;;18.60;36.90;;;;;;4955091;28;20499;-82
2022/04/10 14:20:11;;;;;;;3.15;1.77;;;18.60;36.50;;;;;;4938040;28;20488;-82
2022/04/10 14:22:37;;;;;;;2.97;1.98;;;18.50;35.40;;;;;;4954652;28;20431;-81
2022/04/10 14:25:03;;;;;;;3.63;1.50;;;18.50;35.00;;;;;;4937066;29;20131;-82
2022/04/10 14:27:29;;;;;;;3.10;1.65;;;18.40;35.20;;;;;;4954935;28;20066;-81
2022/04/10 14:29:55;;;;;;;1.65;1.50;;;18.30;35.00;;;;;;4932692;29;20447;-81
2022/04/10 14:32:21;;;;;;;3.25;1.30;;;18.30;35.50;;;;;;4954505;28;20043;-80
2022/04/10 14:34:47;;;;;;;2.53;1.70;;;18.20;36.30;;;;;;4937795;29;20055;-82
2022/04/10 14:37:13;;;;;;;3.83;1.98;;;18.20;35.90;;;;;;4939329;29;20083;-81
2022/04/10 14:39:39;;;;;;;3.00;2.00;;;18.10;34.00;;;;;;4937086;29;20039;-82
2022/04/10 14:42:05;;;;;;;5.20;2.30;;;18.00;33.30;;;;;;4941998;29;20067;-82
2022/04/10 14:44:31;;;;;;;4.75;2.20;;;18.00;34.40;;;;;;4953024;28;20507;-81
2022/04/10 14:46:56;;;;;;;4.72;1.85;;;17.90;34.20;;;;;;4954823;29;20039;-81
2022/04/10 14:49:22;;;;;;;4.05;2.28;;;18.00;35.10;;;;;;4954808;29;20038;-81
2022/04/10 14:51:48;;;;;;;3.75;2.20;;;17.90;33.30;;;;;;4955111;29;20468;-83
2022/04/10 14:54:15;;;;;;;3.30;2.15;;;17.90;34.40;;;;;;4954696;29;20027;-82
2022/04/10 14:56:41;;;;;;;3.95;2.20;;;17.90;35.80;;;;;;4954971;29;20507;-81
2022/04/10 14:59:09;;;;;;;3.88;1.85;;;17.90;35.20;;;;;;4954904;29;20126;-82
2022/04/10 15:01:35;;;;;;;4.35;2.05;;;17.90;34.70;;;;;;4954912;28;20038;-81
2022/04/10 15:04:01;;;;;;;4.03;2.20;;;17.80;39.30;;;;;;4954868;29;20035;-82
2022/04/10 15:06:27;;;;;;;4.43;2.53;;;17.80;39.80;;;;;;4945611;28;20111;-82
2022/04/10 15:08:53;;;;;;;3.67;2.17;;;17.70;40.50;;;;;;4942203;29;20032;-82
2022/04/10 15:11:18;;;;;;;4.43;2.28;;;17.60;42.90;;;;;;4942469;29;20019;-82
2022/04/10 15:13:44;;;;;;;2.83;2.10;;;17.60;44.10;;;;;;4942235;29;20429;-81
2022/04/10 15:16:10;;;;;;;2.47;1.85;;;17.50;44.40;;;;;;4946764;28;20027;-82
2022/04/10 15:18:36;;;;;;;3.30;2.03;;;17.40;42.70;;;;;;4961096;28;20031;-82
2022/04/10 15:21:03;;;;;;;2.38;1.95;;;17.30;42.50;;;;;;4960790;28;20040;-81
2022/04/10 15:23:29;;;;;;;3.38;2.25;;;17.40;42.80;;;;;;4960953;28;20087;-82
2022/04/10 15:25:54;;;;;;;3.45;1.90;;;17.30;43.20;;;;;;4943916;29;20035;-81
2022/04/10 15:28:20;;;;;;;2.92;2.22;;;17.30;43.50;;;;;;4961024;29;20078;-82
2022/04/10 15:30:46;;;;;;;4.85;2.03;;;17.40;44.10;;;;;;4943859;29;20487;-82
2022/04/10 15:33:12;;;;;;;3.53;1.95;;;17.30;44.70;;;;;;4961461;28;20418;-82
2022/04/10 15:35:40;;;;;;;3.70;2.17;;;17.20;45.40;;;;;;4952693;28;20464;-82
2022/04/10 15:38:06;;;;;;;4.95;1.80;;;17.10;46.40;;;;;;4941603;29;20094;-82
2022/04/10 15:40:32;;;;;;;3.40;1.90;;;17.00;46.90;;;;;;4925153;29;20118;-81
2022/04/10 15:42:58;;;;;;;6.15;2.40;;;16.80;45.90;;;;;;4941418;29;20501;-81
2022/04/10 15:45:26;;;;;;;4.82;2.50;;;16.80;45.30;;;;;;4953463;28;20058;-82
2022/04/10 15:47:52;;;;;;;6.32;2.50;;;16.80;44.60;;;;;;4960702;28;20031;-82
2022/04/10 15:50:18;;;;;;;5.60;2.10;;;16.90;45.50;;;;;;4943621;29;20391;-82
2022/04/10 15:52:44;;;;;;;4.22;1.80;;;16.90;44.90;;;;;;4960995;28;20039;-82
2022/04/10 15:55:12;;;;;;;6.18;2.30;;;16.80;44.50;;;;;;4943927;28;20484;-81
2022/04/10 15:57:38;;;;;;;3.35;1.75;;;16.80;44.10;;;;;;4960440;28;20035;-82
2022/04/10 16:00:06;;;;;;;4.28;1.98;;;16.80;43.50;;;;;;4959804;28;20061;-82
2022/04/10 16:02:32;;;;;;;3.08;1.80;;;16.80;43.60;;;;;;4959944;28;20416;-82
2022/04/10 16:04:58;;;;;;;4.60;1.90;;;16.70;43.90;;;;;;4956056;28;20361;-82
2022/04/10 16:07:24;;;;;;;4.60;1.80;;;16.70;43.20;;;;;;4949876;29;20035;-82
2022/04/10 16:09:50;;;;;;;3.42;1.75;;;16.70;42.80;;;;;;4960502;29;20110;-82
2022/04/10 16:12:16;;;;;;;3.72;1.88;;;16.70;42.80;;;;;;4960585;28;20098;-82
2022/04/10 16:14:41;;;;;;;2.58;1.60;;;16.70;42.30;;;;;;4960501;28;20058;-82
2022/04/10 16:17:07;;;;;;;3.17;1.60;;;16.70;43.40;;;;;;4957817;28;20061;-82
2022/04/10 16:19:33;;;;;;;3.42;1.40;;;16.60;43.40;;;;;;4957381;28;20114;-82
2022/04/10 16:21:58;;;;;;;4.00;1.70;;;16.60;44.00;;;;;;4935750;29;20475;-81
2022/04/10 16:24:24;;;;;;;2.67;1.95;;;16.60;43.90;;;;;;4957411;28;20035;-82
2022/04/10 16:32:19;;;;;;;4.70;2.63;;;16.50;43.60;;;;;;4957601;28;20074;-82
2022/04/10 16:34:44;;;;;;;3.22;2.30;;;16.50;43.90;;;;;;4956987;28;20555;-81
2022/04/10 16:37:10;;;;;;;6.18;2.20;;;16.50;42.70;;;;;;4940331;29;20043;-82
2022/04/10 16:39:36;;;;;;;3.83;2.17;;;16.50;43.80;;;;;;4957398;28;20070;-82
2022/04/10 16:42:01;;;;;;;6.03;3.10;;;16.50;44.60;;;;;;4940167;29;20042;-82
2022/04/10 16:44:29;;;;;;;8.25;2.78;;;16.50;46.20;;;;;;4957481;28;20043;-82
2022/04/10 16:46:55;;;;;;;4.53;2.35;;;16.40;47.10;;;;;;4939982;28;20042;-82
2022/04/10 16:49:21;;;;;;;2.92;2.13;;;16.40;46.70;;;;;;4956635;28;20039;-82
2022/04/10 16:51:48;;;;;;;3.30;2.28;;;16.40;44.50;;;;;;4955826;28;20042;-81
2022/04/10 16:56:57;;;;;;;8.02;2.40;;;16.30;44.60;;;;;;4956660;28;20515;-82
2022/04/10 16:59:23;;;;;;;5.72;2.47;;;16.40;44.10;;;;;;4956289;28;20043;-82
2022/04/10 17:01:49;;;;;;;4.68;2.30;;;16.30;44.50;;;;;;4956149;28;20035;-82
2022/04/10 17:04:14;;;;;;;4.47;2.28;;;16.20;45.80;;;;;;4956907;28;20178;-82
2022/04/10 17:06:40;;;;;;;4.50;2.03;;;16.20;46.90;;;;;;4956293;28;20038;-82
2022/04/10 17:09:06;;;;;;;4.07;2.35;;;16.20;46.10;;;;;;4954851;28;20118;-81
2022/04/10 17:11:31;;;;;;;6.32;2.90;;;16.20;46.70;;;;;;4956240;28;20046;-82
2022/04/10 17:13:57;;;;;;;6.30;3.22;;;16.20;46.90;;;;;;4956630;28;20035;-81
2022/04/10 17:16:23;;;;;;;5.80;3.20;;;16.10;47.70;;;;;;4939713;29;20039;-82
2022/04/10 17:18:48;;;;;;;5.70;3.00;;;16.10;47.80;;;;;;4955881;29;20110;-81
2022/04/10 17:21:14;;;;;;;5.32;3.10;;;16.00;49.00;;;;;;4949295;29;20047;-81
2022/04/10 17:23:40;;;;;;;7.63;3.47;;;16.00;49.30;;;;;;4937639;29;20043;-81
2022/04/10 17:26:06;;;;;;;6.25;3.42;;;15.90;50.80;;;;;;4938909;29;20035;-81
2022/04/10 17:28:32;;;;;;;7.50;3.67;;;15.90;53.30;;;;;;4955565;28;20055;-81
2022/04/10 17:30:58;;;;;;;7.78;4.50;;;15.90;54.10;;;;;;4956061;28;20047;-82
2022/04/10 17:33:24;;;;;;;8.20;4.07;;;15.90;54.70;;;;;;4948091;29;20043;-81
2022/04/10 17:35:50;;;;;;;10.52;4.93;;;15.90;55.80;;;;;;4950000;28;20040;-82
2022/04/10 17:38:16;;;;;;;10.95;4.50;;;15.70;55.10;;;;;;4955696;29;20042;-81
2022/04/10 17:40:44;;;;;;;5.80;4.18;;;15.70;56.40;;;;;;4950987;29;20039;-81
2022/04/10 17:43:11;;;;;;;9.35;4.75;;;15.70;55.00;;;;;;4950950;28;20039;-81
2022/04/10 17:45:37;;;;;;;6.97;4.00;;;15.60;54.20;;;;;;4934884;28;20038;-82
2022/04/10 17:48:04;;;;;;;12.88;5.32;;;15.50;54.70;;;;;;4951297;28;20031;-81
2022/04/10 17:50:31;;;;;;;10.00;4.68;;;15.50;56.40;;;;;;4946681;28;20654;-81
2022/04/10 17:52:56;;;;;;;6.32;3.85;;;15.50;56.30;;;;;;4951762;28;20033;-80
2022/04/10 17:55:24;;;;;;;8.45;5.00;;;15.60;56.30;;;;;;4943911;29;20051;-80
2022/04/10 17:57:50;;;;;;;9.73;4.45;;;15.50;57.20;;;;;;4944536;28;20035;-81
2022/04/10 18:00:20;;;;;;;6.95;4.50;;;15.50;57.90;;;;;;4929906;29;20134;-81
2022/04/10 18:02:46;;;;;;;5.70;3.95;;;15.50;58.70;;;;;;4948291;28;20046;-82
2022/04/10 18:05:13;;;;;;;8.23;4.30;;;15.40;59.90;;;;;;4948448;29;20047;-82
2022/04/10 18:07:39;;;;;;;5.60;3.80;;;15.40;60.90;;;;;;4946681;29;20027;-81
2022/04/10 18:10:05;;;;;;;5.35;3.95;;;15.40;61.10;;;;;;4955491;29;20031;-81
2022/04/10 18:12:32;;;;;;;6.75;3.70;;;15.30;61.20;;;;;;4951303;28;20044;-81
2022/04/10 18:14:58;;;;;;;5.40;3.65;;;15.30;60.40;;;;;;4954087;28;20051;-81
2022/04/10 18:17:24;;;;;;;5.72;3.97;;;15.30;61.10;;;;;;4937726;29;20066;-81
2022/04/10 18:19:50;;;;;;;5.25;3.33;;;15.30;59.70;;;;;;4947954;29;20043;-81
2022/04/10 18:22:16;;;;;;;8.05;4.35;;;15.30;58.90;;;;;;4936047;29;20039;-81
2022/04/10 18:24:42;;;;;;;6.50;3.80;;;15.30;58.90;;;;;;4927435;29;20036;-81
2022/04/10 18:27:16;;;;;;;4.97;3.45;;;15.30;59.00;;;;;;4932971;29;21209;-81
2022/04/10 18:29:42;;;;;;;5.47;4.03;;;15.30;59.20;;;;;;4946810;29;20023;-81
2022/04/10 18:32:09;;;;;;;7.03;3.88;;;15.20;59.50;;;;;;4947057;29;20039;-76
2022/04/10 18:34:34;;;;;;;6.57;3.22;;;15.10;60.00;;;;;;4953317;28;20043;-76
2022/04/10 18:37:00;;;;;;;6.13;3.80;;;15.10;59.90;;;;;;4933615;29;20449;-76
2022/04/10 18:39:26;;;;;;;7.13;3.80;;;15.10;60.50;;;;;;4950900;28;20031;-76
2022/04/10 18:41:52;;;;;;;5.00;3.50;;;15.10;60.40;;;;;;4948577;28;20050;-75
2022/04/10 18:44:18;;;;;;;4.38;3.28;;;15.10;59.20;;;;;;4943215;29;20039;-75
2022/04/10 18:46:47;;;;;;;8.48;4.18;;;15.10;58.40;;;;;;4945539;29;20451;-75
2022/04/10 18:51:59;;;;;;;7.50;3.10;;;15.00;58.60;;;;;;4951892;29;20054;-75
2022/04/10 18:54:26;;;;;;;6.95;4.07;;;14.90;57.00;;;;;;4941470;28;20071;-76
2022/04/10 18:56:54;;;;;;;5.85;3.35;;;14.90;58.00;;;;;;4935616;29;20054;-76
2022/04/10 18:59:21;;;;;;;6.85;3.10;;;14.90;57.60;;;;;;4950706;28;20530;-76
2022/04/10 19:01:47;;;;;;;9.02;3.38;;;14.90;58.40;;;;;;4951419;28;20098;-81
2022/04/10 19:04:14;;;;;;;5.38;3.00;;;14.90;57.90;;;;;;4949630;28;20032;-81
2022/04/10 19:06:40;;;;;;;4.28;2.58;;;14.80;58.60;;;;;;4941018;29;20034;-83
2022/04/10 19:09:12;;;;;;;4.65;2.85;;;14.90;58.70;;;;;;4931220;28;20043;-81